createdAt,value
2019-03-19T00:02:25.091Z,7.30
2019-03-19T00:04:52.178Z,7.30
2019-03-19T00:07:18.818Z,7.30
2019-03-19T00:09:45.395Z,7.30
2019-03-19T00:12:12.074Z,7.30
2019-03-19T00:14:38.741Z,6.80
2019-03-19T00:17:05.375Z,7.20
2019-03-19T00:19:32.363Z,7.20
2019-03-19T00:21:59.155Z,6.80
2019-03-19T00:24:25.900Z,7.20
2019-03-19T00:26:52.997Z,7.20
2019-03-19T00:29:19.793Z,7.20
2019-03-19T00:31:46.535Z,7.10
2019-03-19T00:34:13.859Z,7.30
2019-03-19T00:36:40.469Z,7.10
2019-03-19T00:39:07.163Z,7.10
2019-03-19T00:41:33.848Z,7.10
2019-03-19T00:44:00.452Z,7.10
2019-03-19T00:46:27.064Z,7.10
2019-03-19T00:48:53.724Z,7.10
2019-03-19T00:51:20.281Z,7.00
2019-03-19T00:53:47.229Z,7.00
2019-03-19T00:56:13.828Z,7.00
2019-03-19T00:58:42.334Z,7.00
2019-03-19T01:01:09.117Z,7.00
2019-03-19T01:03:38.110Z,7.00
2019-03-19T01:06:04.712Z,6.90
2019-03-19T01:08:31.767Z,6.90
2019-03-19T01:10:58.672Z,6.90
2019-03-19T01:13:25.265Z,6.90
2019-03-19T01:18:30.802Z,6.80
2019-03-19T01:20:57.466Z,6.90
2019-03-19T01:23:24.390Z,6.90
2019-03-19T01:25:55.496Z,6.90
2019-03-19T01:28:19.820Z,6.90
2019-03-19T01:30:47.584Z,6.80
2019-03-19T01:33:14.162Z,6.80
2019-03-19T01:35:40.903Z,6.80
2019-03-19T01:38:07.461Z,6.80
2019-03-19T01:40:34.173Z,6.80
2019-03-19T01:43:00.749Z,6.80
2019-03-19T01:45:29.128Z,6.80
2019-03-19T01:47:55.711Z,6.80
2019-03-19T01:50:22.480Z,6.60
2019-03-19T01:52:50.844Z,6.70
2019-03-19T01:55:18.423Z,6.70
2019-03-19T01:57:46.915Z,6.70
2019-03-19T02:00:13.439Z,6.70
2019-03-19T02:02:40.039Z,6.70
2019-03-19T02:05:06.888Z,6.70
2019-03-19T02:07:33.441Z,6.70
2019-03-19T02:12:39.434Z,6.50
2019-03-19T02:15:06.381Z,6.60
2019-03-19T02:17:32.952Z,6.60
2019-03-19T02:19:59.934Z,6.60
2019-03-19T02:22:26.527Z,6.60
2019-03-19T02:24:54.291Z,6.60
2019-03-19T02:27:20.877Z,6.60
2019-03-19T02:29:48.337Z,6.60
2019-03-19T02:32:16.051Z,6.60
2019-03-19T02:34:43.665Z,6.60
2019-03-19T02:37:10.304Z,6.60
2019-03-19T02:39:36.885Z,6.60
2019-03-19T02:42:03.865Z,6.30
2019-03-19T02:44:30.353Z,6.50
2019-03-19T02:46:56.985Z,6.50
2019-03-19T02:49:23.570Z,6.50
2019-03-19T02:51:50.198Z,6.50
2019-03-19T02:54:16.782Z,6.50
2019-03-19T02:56:43.722Z,6.50
2019-03-19T02:59:10.381Z,6.50
2019-03-19T03:01:36.971Z,6.50
2019-03-19T03:04:03.624Z,6.40
2019-03-19T03:06:30.364Z,6.50
2019-03-19T03:08:58.046Z,6.50
2019-03-19T03:11:24.621Z,6.40
2019-03-19T03:13:51.225Z,6.40
2019-03-19T03:16:18.951Z,6.40
2019-03-19T03:18:45.692Z,6.40
2019-03-19T03:21:12.380Z,6.00
2019-03-19T03:23:41.154Z,6.40
2019-03-19T03:26:07.875Z,6.40
2019-03-19T03:28:34.500Z,6.40
2019-03-19T03:31:01.099Z,6.40
2019-03-19T03:33:27.800Z,6.40
2019-03-19T03:35:54.368Z,6.40
2019-03-19T03:38:21.076Z,6.40
2019-03-19T03:40:47.813Z,6.40
2019-03-19T03:43:14.405Z,6.30
2019-03-19T03:45:41.178Z,6.30
2019-03-19T03:48:09.733Z,6.30
2019-03-19T03:50:36.266Z,6.30
2019-03-19T03:53:04.751Z,6.30
2019-03-19T03:55:31.560Z,6.30
2019-03-19T03:57:58.803Z,6.30
2019-03-19T04:00:25.721Z,6.30
2019-03-19T04:02:52.322Z,6.30
2019-03-19T04:05:19.032Z,6.30
2019-03-19T04:07:45.697Z,6.30
2019-03-19T04:10:12.276Z,6.30
2019-03-19T04:12:40.678Z,6.20
2019-03-19T04:15:07.435Z,6.20
2019-03-19T04:17:35.839Z,6.20
2019-03-19T04:20:02.576Z,6.20
2019-03-19T04:22:29.151Z,6.20
2019-03-19T04:24:55.731Z,6.20
2019-03-19T04:27:22.357Z,6.20
2019-03-19T04:29:49.165Z,6.20
2019-03-19T04:32:17.671Z,6.20
2019-03-19T04:34:44.134Z,6.20
2019-03-19T04:37:10.866Z,6.10
2019-03-19T04:39:38.601Z,6.00
2019-03-19T04:42:06.617Z,6.10
2019-03-19T04:44:33.462Z,6.10
2019-03-19T04:47:00.098Z,6.10
2019-03-19T04:49:26.665Z,6.10
2019-03-19T04:51:53.675Z,6.10
2019-03-19T04:54:20.261Z,6.10
2019-03-19T04:56:46.913Z,6.10
2019-03-19T04:59:13.597Z,6.10
2019-03-19T05:01:40.261Z,6.10
2019-03-19T05:04:06.854Z,6.00
2019-03-19T05:06:33.745Z,6.00
2019-03-19T05:09:00.343Z,6.00
2019-03-19T05:11:27.502Z,6.00
2019-03-19T05:13:55.154Z,6.00
2019-03-19T05:16:21.949Z,6.00
2019-03-19T05:18:48.853Z,6.00
2019-03-19T05:21:15.856Z,6.00
2019-03-19T05:23:42.491Z,6.00
2019-03-19T05:26:09.072Z,6.00
2019-03-19T05:28:37.911Z,6.00
2019-03-19T05:31:04.492Z,5.90
2019-03-19T05:33:31.347Z,5.90
2019-03-19T05:35:57.971Z,5.90
2019-03-19T05:38:25.825Z,5.90
2019-03-19T05:40:52.798Z,5.90
2019-03-19T05:43:19.384Z,5.90
2019-03-19T05:45:46.005Z,5.90
2019-03-19T05:48:12.622Z,5.90
2019-03-19T05:50:39.189Z,5.90
2019-03-19T05:53:06.906Z,5.90
2019-03-19T05:55:34.691Z,5.90
2019-03-19T05:58:01.389Z,5.90
2019-03-19T06:00:29.747Z,5.90
2019-03-19T06:02:57.466Z,5.90
2019-03-19T06:05:24.106Z,5.90
2019-03-19T06:07:50.713Z,5.90
2019-03-19T06:10:17.438Z,5.80
2019-03-19T06:12:44.420Z,5.80
2019-03-19T06:15:12.256Z,5.80
2019-03-19T06:17:39.420Z,5.80
2019-03-19T06:20:07.511Z,5.80
2019-03-19T06:22:34.200Z,5.50
2019-03-19T06:25:01.302Z,5.80
2019-03-19T06:27:28.248Z,5.80
2019-03-19T06:29:54.751Z,5.80
2019-03-19T06:32:21.464Z,5.80
2019-03-19T06:34:48.489Z,5.80
2019-03-19T06:37:15.297Z,5.80
2019-03-19T06:39:42.136Z,5.80
2019-03-19T06:42:08.874Z,5.80
2019-03-19T06:44:35.892Z,5.80
2019-03-19T06:47:02.511Z,5.80
2019-03-19T06:49:30.397Z,5.80
2019-03-19T06:51:57.466Z,5.80
2019-03-19T06:54:25.987Z,5.80
2019-03-19T06:56:52.671Z,5.70
2019-03-19T06:59:19.251Z,5.70
2019-03-19T07:01:45.951Z,5.70
2019-03-19T07:04:12.577Z,5.70
2019-03-19T07:06:39.289Z,5.70
2019-03-19T07:09:05.875Z,5.70
2019-03-19T07:11:35.822Z,5.70
2019-03-19T07:14:02.565Z,5.70
2019-03-19T07:16:29.223Z,5.70
2019-03-19T07:18:56.408Z,5.70
2019-03-19T07:21:23.064Z,5.70
2019-03-19T07:23:49.787Z,5.70
2019-03-19T07:26:16.927Z,5.70
2019-03-19T07:28:43.801Z,5.70
2019-03-19T07:31:10.449Z,5.70
2019-03-19T07:33:37.131Z,5.70
2019-03-19T07:36:06.192Z,5.70
2019-03-19T07:41:12.192Z,5.50
2019-03-19T07:43:38.923Z,5.80
2019-03-19T07:46:07.839Z,5.80
2019-03-19T07:48:34.447Z,5.80
2019-03-19T07:51:01.453Z,5.80
2019-03-19T07:53:28.163Z,5.80
2019-03-19T07:55:54.723Z,5.80
2019-03-19T07:58:31.362Z,5.80
2019-03-19T08:00:49.822Z,5.80
2019-03-19T08:03:16.674Z,5.80
2019-03-19T08:05:44.825Z,5.80
2019-03-19T08:08:11.515Z,5.90
2019-03-19T08:10:38.314Z,5.90
2019-03-19T08:13:05.135Z,5.90
2019-03-19T08:15:32.832Z,5.90
2019-03-19T08:17:59.804Z,5.90
2019-03-19T08:20:26.950Z,5.90
2019-03-19T08:22:53.896Z,5.90
2019-03-19T08:25:39.836Z,6.00
2019-03-19T08:28:06.366Z,6.00
2019-03-19T08:30:33.059Z,6.00
2019-03-19T08:33:01.621Z,6.10
2019-03-19T08:35:28.493Z,6.10
2019-03-19T08:37:55.143Z,6.10
2019-03-19T08:40:21.738Z,6.10
2019-03-19T08:42:48.367Z,6.20
2019-03-19T08:45:15.239Z,6.20
2019-03-19T08:47:41.812Z,6.20
2019-03-19T08:50:08.432Z,6.30
2019-03-19T08:52:35.430Z,6.30
2019-03-19T08:55:02.704Z,6.40
2019-03-19T08:57:29.290Z,6.30
2019-03-19T08:59:57.180Z,6.40
2019-03-19T09:02:24.125Z,6.40
2019-03-19T09:04:50.847Z,6.50
2019-03-19T09:07:20.034Z,6.50
2019-03-19T09:09:46.870Z,6.60
2019-03-19T09:12:13.570Z,6.60
2019-03-19T09:14:42.065Z,6.60
2019-03-19T09:17:08.672Z,6.70
2019-03-19T09:19:35.242Z,6.70
2019-03-19T09:22:02.275Z,6.80
2019-03-19T09:24:28.886Z,6.80
2019-03-19T09:26:55.460Z,6.80
2019-03-19T09:29:22.073Z,6.90
2019-03-19T09:31:48.832Z,6.80
2019-03-19T09:34:15.593Z,7.00
2019-03-19T09:36:42.280Z,7.00
2019-03-19T09:39:08.977Z,7.10
2019-03-19T09:41:35.885Z,7.10
2019-03-19T09:44:02.578Z,7.20
2019-03-19T09:46:29.182Z,7.20
2019-03-19T09:48:55.759Z,7.30
2019-03-19T09:51:24.242Z,7.30
2019-03-19T09:53:51.071Z,7.40
2019-03-19T09:56:18.028Z,7.40
2019-03-19T09:58:44.919Z,7.50
2019-03-19T10:01:11.637Z,7.50
2019-03-19T10:03:40.200Z,7.60
2019-03-19T10:06:14.007Z,7.60
2019-03-19T10:08:35.394Z,7.70
2019-03-19T10:11:02.372Z,7.70
2019-03-19T10:13:29.096Z,7.80
2019-03-19T10:15:55.703Z,7.80
2019-03-19T10:18:22.385Z,7.90
2019-03-19T10:20:49.086Z,7.90
2019-03-19T10:23:15.993Z,8.00
2019-03-19T10:25:42.801Z,8.00
2019-03-19T10:28:09.485Z,8.10
2019-03-19T10:30:36.308Z,8.10
2019-03-19T10:33:02.896Z,8.20
2019-03-19T10:35:29.479Z,8.20
2019-03-19T10:37:56.045Z,8.30
2019-03-19T10:40:22.964Z,8.30
2019-03-19T10:42:51.617Z,8.40
2019-03-19T10:45:18.178Z,8.40
2019-03-19T10:47:46.149Z,8.50
2019-03-19T10:50:12.831Z,8.50
2019-03-19T10:52:39.842Z,8.60
2019-03-19T10:55:06.919Z,8.60
2019-03-19T10:57:33.502Z,8.70
2019-03-19T11:00:00.445Z,8.70
2019-03-19T11:02:29.138Z,8.70
2019-03-19T11:04:56.046Z,8.80
2019-03-19T11:07:22.730Z,8.90
2019-03-19T11:09:49.327Z,8.90
2019-03-19T11:12:16.109Z,9.00
2019-03-19T11:14:42.938Z,9.00
2019-03-19T11:17:09.618Z,9.10
2019-03-19T11:19:36.443Z,9.10
2019-03-19T11:22:03.556Z,9.20
2019-03-19T11:24:30.141Z,9.20
2019-03-19T11:26:57.122Z,9.30
2019-03-19T11:29:23.911Z,9.30
2019-03-19T11:31:50.481Z,9.40
2019-03-19T11:34:17.179Z,9.40
2019-03-19T11:36:45.275Z,9.50
2019-03-19T11:39:11.844Z,9.50
2019-03-19T11:41:38.570Z,9.60
2019-03-19T11:44:05.181Z,9.60
2019-03-19T11:46:31.787Z,9.70
2019-03-19T11:48:58.897Z,9.70
2019-03-19T11:51:25.785Z,9.80
2019-03-19T11:53:52.531Z,9.90
2019-03-19T11:56:19.675Z,9.90
2019-03-19T11:58:46.263Z,10.00
2019-03-19T12:01:14.708Z,10.00
2019-03-19T12:03:41.461Z,10.10
2019-03-19T12:06:08.050Z,10.10
2019-03-19T12:08:34.689Z,10.20
2019-03-19T12:11:01.730Z,10.30
2019-03-19T12:13:28.467Z,10.30
2019-03-19T12:15:55.515Z,10.30
2019-03-19T12:18:22.209Z,10.40
2019-03-19T12:20:48.835Z,10.40
2019-03-19T12:23:15.441Z,10.50
2019-03-19T12:25:42.172Z,10.50
2019-03-19T12:28:08.904Z,10.20
2019-03-19T12:30:36.050Z,10.60
2019-03-19T12:33:04.269Z,10.20
2019-03-19T12:35:31.125Z,10.70
2019-03-19T12:37:58.931Z,10.70
2019-03-19T12:40:35.947Z,10.80
2019-03-19T12:42:54.182Z,10.80
2019-03-19T12:45:20.752Z,10.80
2019-03-19T12:47:47.635Z,10.90
2019-03-19T12:50:14.678Z,10.90
2019-03-19T12:52:41.322Z,10.90
2019-03-19T12:55:08.060Z,11.00
2019-03-19T12:57:34.676Z,11.00
2019-03-19T13:00:02.790Z,11.00
2019-03-19T13:02:29.723Z,11.10
2019-03-19T13:04:56.307Z,11.10
2019-03-19T13:07:22.936Z,11.10
2019-03-19T13:09:49.764Z,11.20
2019-03-19T13:12:16.470Z,11.20
2019-03-19T13:14:43.044Z,11.20
2019-03-19T13:17:09.660Z,11.30
2019-03-19T13:19:36.299Z,11.30
2019-03-19T13:22:05.295Z,11.30
2019-03-19T13:24:32.031Z,11.40
2019-03-19T13:26:59.134Z,11.40
2019-03-19T13:29:25.911Z,11.40
2019-03-19T13:31:52.672Z,11.40
2019-03-19T13:34:19.356Z,11.40
2019-03-19T13:36:46.306Z,11.50
2019-03-19T13:39:14.259Z,11.50
2019-03-19T13:41:41.480Z,11.50
2019-03-19T13:44:08.029Z,11.50
2019-03-19T13:46:34.752Z,11.50
2019-03-19T13:49:01.431Z,11.50
2019-03-19T13:51:27.968Z,11.60
2019-03-19T13:53:54.643Z,11.60
2019-03-19T13:56:21.571Z,11.60
2019-03-19T13:58:48.470Z,11.60
2019-03-19T14:01:15.171Z,11.70
2019-03-19T14:03:41.802Z,11.60
2019-03-19T14:06:08.565Z,11.70
2019-03-19T14:08:35.253Z,11.70
2019-03-19T14:11:01.852Z,11.70
2019-03-19T14:13:28.442Z,11.60
2019-03-19T14:15:55.055Z,11.70
2019-03-19T14:18:23.839Z,11.70
2019-03-19T14:20:50.338Z,11.70
2019-03-19T14:23:17.011Z,11.80
2019-03-19T14:25:43.715Z,11.80
2019-03-19T14:28:10.457Z,11.80
2019-03-19T14:30:37.221Z,11.80
2019-03-19T14:33:04.234Z,11.80
2019-03-19T14:35:37.345Z,11.80
2019-03-19T14:37:59.789Z,11.80
2019-03-19T14:40:26.414Z,11.80
2019-03-19T14:42:52.999Z,11.80
2019-03-19T14:45:19.837Z,11.90
2019-03-19T14:47:46.962Z,11.90
2019-03-19T14:50:13.572Z,11.90
2019-03-19T14:52:40.341Z,11.90
2019-03-19T14:55:08.367Z,11.90
2019-03-19T14:57:35.056Z,11.90
2019-03-19T15:00:01.886Z,11.90
2019-03-19T15:02:28.601Z,11.90
2019-03-19T15:04:55.280Z,12.00
2019-03-19T15:07:22.007Z,12.00
2019-03-19T15:09:48.783Z,12.00
2019-03-19T15:12:15.422Z,12.00
2019-03-19T15:14:42.020Z,12.00
2019-03-19T15:17:08.759Z,12.00
2019-03-19T15:19:35.444Z,11.70
2019-03-19T15:22:02.088Z,12.00
2019-03-19T15:24:28.738Z,12.00
2019-03-19T15:26:55.452Z,12.10
2019-03-19T15:29:22.120Z,12.10
2019-03-19T15:31:49.384Z,12.10
2019-03-19T15:34:16.228Z,12.10
2019-03-19T15:36:42.964Z,12.10
2019-03-19T15:39:09.681Z,12.10
2019-03-19T15:41:36.736Z,12.20
2019-03-19T15:44:03.336Z,12.20
2019-03-19T15:46:30.010Z,12.20
2019-03-19T15:48:56.879Z,12.20
2019-03-19T15:51:23.558Z,12.20
2019-03-19T15:53:50.156Z,12.20
2019-03-19T15:56:17.230Z,12.20
2019-03-19T15:58:43.995Z,12.20
2019-03-19T16:01:10.618Z,12.20
2019-03-19T16:03:37.236Z,12.30
2019-03-19T16:06:03.954Z,12.20
2019-03-19T16:08:30.540Z,12.30
2019-03-19T16:10:57.132Z,12.20
2019-03-19T16:13:23.914Z,12.30
2019-03-19T16:15:50.521Z,12.30
2019-03-19T16:18:20.896Z,12.30
2019-03-19T16:20:47.894Z,12.30
2019-03-19T16:23:16.412Z,12.30
2019-03-19T16:25:42.939Z,12.30
2019-03-19T16:28:09.640Z,12.30
2019-03-19T16:30:36.254Z,12.30
2019-03-19T16:33:05.011Z,12.30
2019-03-19T16:35:31.653Z,12.30
2019-03-19T16:37:58.545Z,12.30
2019-03-19T16:40:25.137Z,12.30
2019-03-19T16:42:51.819Z,12.30
2019-03-19T16:45:18.769Z,12.30
2019-03-19T16:47:45.539Z,12.30
2019-03-19T16:50:12.709Z,12.30
2019-03-19T16:52:39.332Z,12.40
2019-03-19T16:55:07.949Z,12.30
2019-03-19T16:57:34.569Z,12.30
2019-03-19T17:00:01.714Z,12.40
2019-03-19T17:02:28.814Z,12.30
2019-03-19T17:04:55.639Z,12.30
2019-03-19T17:07:22.478Z,12.30
2019-03-19T17:09:49.382Z,12.30
2019-03-19T17:12:16.035Z,12.30
2019-03-19T17:14:42.775Z,12.30
2019-03-19T17:17:09.629Z,12.30
2019-03-19T17:19:36.347Z,12.30
2019-03-19T17:22:04.095Z,12.30
2019-03-19T17:24:30.699Z,12.30
2019-03-19T17:26:57.922Z,12.30
2019-03-19T17:29:24.518Z,12.30
2019-03-19T17:31:51.525Z,12.30
2019-03-19T17:34:18.423Z,12.30
2019-03-19T17:36:47.213Z,12.30
2019-03-19T17:39:15.736Z,12.30
2019-03-19T17:41:42.440Z,12.10
2019-03-19T17:44:08.936Z,12.30
2019-03-19T17:46:35.596Z,12.30
2019-03-19T17:49:04.120Z,12.30
2019-03-19T17:51:30.850Z,12.20
2019-03-19T17:53:57.463Z,12.20
2019-03-19T17:56:24.153Z,12.10
2019-03-19T17:58:50.933Z,12.20
2019-03-19T18:01:17.893Z,12.20
2019-03-19T18:03:44.765Z,12.20
2019-03-19T18:06:11.710Z,12.20
2019-03-19T18:08:42.408Z,12.20
2019-03-19T18:11:10.351Z,12.20
2019-03-19T18:13:37.052Z,12.20
2019-03-19T18:16:05.967Z,12.10
2019-03-19T18:18:33.221Z,12.20
2019-03-19T18:20:59.797Z,12.10
2019-03-19T18:23:26.498Z,12.10
2019-03-19T18:25:53.213Z,12.10
2019-03-19T18:28:19.839Z,12.10
2019-03-19T18:30:46.530Z,12.10
2019-03-19T18:33:13.724Z,12.10
2019-03-19T18:35:40.866Z,12.10
2019-03-19T18:38:07.558Z,12.00
2019-03-19T18:40:34.217Z,12.10
2019-03-19T18:43:00.974Z,12.00
2019-03-19T18:45:27.572Z,12.00
2019-03-19T18:50:34.358Z,11.90
2019-03-19T18:53:00.932Z,12.00
2019-03-19T18:55:27.489Z,12.00
2019-03-19T18:57:57.610Z,12.00
2019-03-19T19:00:25.084Z,11.90
2019-03-19T19:02:55.339Z,11.90
2019-03-19T19:05:23.109Z,11.90
2019-03-19T19:07:49.997Z,11.70
2019-03-19T19:10:16.565Z,11.90
2019-03-19T19:12:43.135Z,11.90
2019-03-19T19:15:09.788Z,11.90
2019-03-19T19:17:36.421Z,11.80
2019-03-19T19:20:03.401Z,11.80
2019-03-19T19:22:30.043Z,11.80
2019-03-19T19:24:56.643Z,11.80
2019-03-19T19:27:23.225Z,11.80
2019-03-19T19:29:50.131Z,11.70
2019-03-19T19:32:16.816Z,11.70
2019-03-19T19:34:43.379Z,11.70
2019-03-19T19:37:11.374Z,11.70
2019-03-19T19:39:38.390Z,11.70
2019-03-19T19:42:05.031Z,11.70
2019-03-19T19:44:31.624Z,11.60
2019-03-19T19:46:58.169Z,11.60
2019-03-19T19:49:24.844Z,11.60
2019-03-19T19:51:51.522Z,11.60
2019-03-19T19:54:18.377Z,11.60
2019-03-19T19:56:45.441Z,11.60
2019-03-19T19:59:12.026Z,11.50
2019-03-19T20:01:38.895Z,11.50
2019-03-19T20:04:06.042Z,11.50
2019-03-19T20:06:32.651Z,11.50
2019-03-19T20:08:59.618Z,11.50
2019-03-19T20:11:26.513Z,11.40
2019-03-19T20:13:53.179Z,11.40
2019-03-19T20:16:19.782Z,11.40
2019-03-19T20:18:46.414Z,11.40
2019-03-19T20:21:12.970Z,11.40
2019-03-19T20:23:39.667Z,11.40
2019-03-19T20:26:06.354Z,11.30
2019-03-19T20:28:32.936Z,11.30
2019-03-19T20:30:59.506Z,11.30
2019-03-19T20:33:26.453Z,11.30
2019-03-19T20:35:55.549Z,11.30
2019-03-19T20:38:21.818Z,11.30
2019-03-19T20:40:48.378Z,11.30
2019-03-19T20:43:15.066Z,11.20
2019-03-19T20:45:41.784Z,11.20
2019-03-19T20:48:08.346Z,11.20
2019-03-19T20:50:34.904Z,11.20
2019-03-19T20:53:02.122Z,11.20
2019-03-19T20:55:29.235Z,11.10
2019-03-19T20:57:55.871Z,11.20
2019-03-19T21:00:24.503Z,11.10
2019-03-19T21:02:52.137Z,11.10
2019-03-19T21:05:18.753Z,11.10
2019-03-19T21:07:45.489Z,11.10
2019-03-19T21:10:12.223Z,11.10
2019-03-19T21:12:42.554Z,11.10
2019-03-19T21:15:09.904Z,11.10
2019-03-19T21:17:39.642Z,11.00
2019-03-19T21:20:06.386Z,11.00
2019-03-19T21:22:33.027Z,11.00
2019-03-19T21:24:59.758Z,11.00
2019-03-19T21:27:26.324Z,11.00
2019-03-19T21:29:52.924Z,11.00
2019-03-19T21:32:19.567Z,10.80
2019-03-19T21:34:46.235Z,11.00
2019-03-19T21:37:13.286Z,10.90
2019-03-19T21:39:40.011Z,10.90
2019-03-19T21:42:06.595Z,10.90
2019-03-19T21:44:33.160Z,10.90
2019-03-19T21:46:59.817Z,10.90
2019-03-19T21:49:26.407Z,10.90
2019-03-19T21:51:52.957Z,10.90
2019-03-19T21:54:19.511Z,10.90
2019-03-19T21:56:46.089Z,10.80
2019-03-19T21:59:13.035Z,10.80
2019-03-19T22:01:39.663Z,10.80
2019-03-19T22:04:06.628Z,10.80
2019-03-19T22:06:33.241Z,10.80
2019-03-19T22:08:59.819Z,10.80
2019-03-19T22:11:26.560Z,10.80
2019-03-19T22:13:53.554Z,10.80
2019-03-19T22:16:20.380Z,10.80
2019-03-19T22:18:47.287Z,10.80
2019-03-19T22:21:13.883Z,10.70
2019-03-19T22:23:40.879Z,10.70
2019-03-19T22:26:07.454Z,10.70
2019-03-19T22:28:34.175Z,10.70
2019-03-19T22:31:01.203Z,10.70
2019-03-19T22:33:27.849Z,10.60
2019-03-19T22:35:54.498Z,10.70
2019-03-19T22:38:21.084Z,10.60
2019-03-19T22:40:47.706Z,10.60
2019-03-19T22:43:14.302Z,10.60
2019-03-19T22:45:41.006Z,10.60
2019-03-19T22:48:07.599Z,10.60
2019-03-19T22:50:34.463Z,10.50
2019-03-19T22:53:01.058Z,10.50
2019-03-19T22:55:29.272Z,10.50
2019-03-19T22:57:56.258Z,10.50
2019-03-19T23:00:42.333Z,10.50
2019-03-19T23:03:08.972Z,10.50
2019-03-19T23:05:35.563Z,10.40
2019-03-19T23:08:02.178Z,10.40
2019-03-19T23:10:28.783Z,10.40
2019-03-19T23:12:55.777Z,10.30
2019-03-19T23:15:25.038Z,10.40
2019-03-19T23:17:51.657Z,10.40
2019-03-19T23:20:18.203Z,10.40
2019-03-19T23:22:44.798Z,10.30
2019-03-19T23:25:11.435Z,10.30
2019-03-19T23:27:38.162Z,10.30
2019-03-19T23:30:05.094Z,10.30
2019-03-19T23:32:31.705Z,10.30
2019-03-19T23:34:58.596Z,10.20
2019-03-19T23:37:25.222Z,10.20
2019-03-19T23:39:51.983Z,10.20
2019-03-19T23:42:18.803Z,10.20
2019-03-19T23:44:45.430Z,10.20
2019-03-19T23:47:11.972Z,10.10
2019-03-19T23:49:38.945Z,10.10
2019-03-19T23:52:05.554Z,10.10
2019-03-19T23:54:34.485Z,10.10
2019-03-19T23:57:01.463Z,10.10
2019-03-19T23:59:28.037Z,10.10
